Terminal Aerodrome Forecast
Issued by NWS Memphis, TN

Home | Current Version | Previous Version | Text Only | Print | Product List | Glossary On
Versions: 1 2 3 4 5 6 7 8 9 10 11 12 13 14 15 16 17 18
000
FTUS44 KMEG 250522
TAFJBR
TAF
KJBR 250522Z 2506/2606 16007KT P6SM VCSH SCT007 BKN120
      TEMPO 2509/2513 BKN007
     FM251500 20014G22KT P6SM VCTS SCT040CB BKN150
      TEMPO 2516/2520 VRB15G30KT 5SM TSRA BKN040CB
     FM252200 19010KT P6SM VCSH SCT040 BKN150=

USA.gov is the U.S. government's official web portal to all federal, state and local government web resources and services.